Time,TemperatureF,DewpointF,PressureIn,WindDirection,WindDirectionDegrees,WindSpeedMPH,WindSpeedGustMPH,Humidity,HourlyPrecipIn,Conditions,Clouds,dailyrainin,SoftwareType,DateUTC
2013-02-27 00:04:00,46.4,46.4,29.53,West,259,0.0,0.0,100,0.00,,,0.76,LWC V2.00 B2112,2013-02-27 05:04:00,
2013-02-27 00:09:00,46.1,46.1,29.53,West,259,0.0,0.0,100,0.00,,,0.76,LWC V2.00 B2112,2013-02-27 05:09:00,
2013-02-27 00:14:00,45.8,45.8,29.53,West,260,0.0,0.0,100,0.00,,,0.76,LWC V2.00 B2112,2013-02-27 05:14:00,
2013-02-27 00:19:00,45.7,45.7,29.53,West,260,0.0,0.0,100,0.00,,,0.76,LWC V2.00 B2112,2013-02-27 05:19:00,
2013-02-27 00:24:00,45.5,45.5,29.53,West,260,0.0,0.0,100,0.00,,,0.76,LWC V2.00 B2112,2013-02-27 05:24:00,
2013-02-27 00:29:00,45.4,45.4,29.53,West,260,0.0,0.0,100,0.00,,,0.00,LWC V2.00 B2112,2013-02-27 05:29:00,
2013-02-27 00:34:00,45.2,45.2,29.53,West,260,0.0,0.0,100,0.00,,,0.00,LWC V2.00 B2112,2013-02-27 05:34:00,
2013-02-27 00:39:00,44.9,44.9,29.53,West,260,0.0,0.0,100,0.00,,,0.00,LWC V2.00 B2112,2013-02-27 05:39:00,
2013-02-27 00:44:00,44.8,44.8,29.52,West,260,0.0,0.0,100,0.00,,,0.00,LWC V2.00 B2112,2013-02-27 05:44:00,
2013-02-27 00:49:00,44.8,44.8,29.52,West,260,0.0,0.0,100,0.00,,,0.00,LWC V2.00 B2112,2013-02-27 05:49:00,
2013-02-27 00:54:00,44.8,44.8,29.52,West,260,0.0,0.0,100,0.00,,,0.00,LWC V2.00 B2112,2013-02-27 05:54:00,
2013-02-27 00:59:00,44.5,44.5,29.53,West,260,0.0,0.0,100,0.00,,,0.00,LWC V2.00 B2112,2013-02-27 05:59:00,
2013-02-27 01:04:00,44.6,44.6,29.53,West,264,0.0,0.0,100,0.00,,,0.00,LWC V2.00 B2112,2013-02-27 06:04:00,
2013-02-27 01:09:00,44.8,44.8,29.53,WSW,250,0.0,0.0,100,0.00,,,0.00,LWC V2.00 B2112,2013-02-27 06:09:00,
2013-02-27 01:14:00,45.1,45.1,29.53,SW,222,0.0,0.0,100,0.00,,,0.00,LWC V2.00 B2112,2013-02-27 06:14:00,
2013-02-27 01:19:00,45.2,45.2,29.53,West,264,0.0,0.0,100,0.00,,,0.00,LWC V2.00 B2112,2013-02-27 06:19:00,
2013-02-27 01:24:00,45.2,45.2,29.53,SW,229,0.0,3.0,100,0.00,,,0.00,LWC V2.00 B2112,2013-02-27 06:24:00,
2013-02-27 01:29:00,45.1,45.1,29.53,SW,215,0.0,0.0,100,0.00,,,0.00,LWC V2.00 B2112,2013-02-27 06:29:00,
2013-02-27 01:34:00,44.9,44.9,29.53,West,264,5.0,5.0,100,0.00,,,0.00,LWC V2.00 B2112,2013-02-27 06:34:00,
2013-02-27 01:39:00,44.8,44.8,29.53,WNW,285,0.0,0.0,100,0.00,,,0.00,LWC V2.00 B2112,2013-02-27 06:39:00,
2013-02-27 01:44:00,44.6,44.6,29.53,NW,304,0.0,0.0,100,0.00,,,0.00,LWC V2.00 B2112,2013-02-27 06:44:00,
2013-02-27 01:49:00,44.6,44.6,29.53,SSW,213,5.0,5.0,100,0.00,,,0.00,LWC V2.00 B2112,2013-02-27 06:49:00,
2013-02-27 01:54:00,44.5,44.5,29.53,SSW,205,0.0,5.0,100,0.00,,,0.00,LWC V2.00 B2112,2013-02-27 06:54:00,
2013-02-27 01:59:00,44.5,44.5,29.53,SSW,197,0.0,3.0,100,0.00,,,0.00,LWC V2.00 B2112,2013-02-27 06:59:00,
2013-02-27 02:04:00,44.3,44.3,29.53,WSW,243,0.0,0.0,100,0.00,,,0.00,LWC V2.00 B2112,2013-02-27 07:04:00,
2013-02-27 02:09:00,44.2,44.2,29.53,WSW,254,0.0,6.0,100,0.00,,,0.00,LWC V2.00 B2112,2013-02-27 07:09:00,
2013-02-27 02:14:00,44.2,44.2,29.53,West,279,0.0,0.0,100,0.00,,,0.00,LWC V2.00 B2112,2013-02-27 07:14:00,
2013-02-27 02:19:00,44.1,44.1,29.53,West,260,0.0,0.0,100,0.00,,,0.00,LWC V2.00 B2112,2013-02-27 07:19:00,
2013-02-27 02:24:00,44.1,44.1,29.53,West,264,0.0,0.0,100,0.00,,,0.00,LWC V2.00 B2112,2013-02-27 07:24:00,
2013-02-27 02:29:00,44.1,44.1,29.53,SSW,207,0.0,0.0,100,0.00,,,0.00,LWC V2.00 B2112,2013-02-27 07:29:00,
2013-02-27 02:34:00,43.9,43.9,29.53,West,271,0.0,1.0,100,0.00,,,0.00,LWC V2.00 B2112,2013-02-27 07:34:00,
2013-02-27 02:39:00,43.9,43.9,29.53,NNE,32,0.0,6.0,100,0.00,,,0.00,LWC V2.00 B2112,2013-02-27 07:39:00,
2013-02-27 02:44:00,43.9,43.9,29.53,West,263,0.0,0.0,100,0.00,,,0.00,LWC V2.00 B2112,2013-02-27 07:44:00,
2013-02-27 02:49:00,43.8,43.8,29.53,WSW,257,0.0,0.0,100,0.00,,,0.00,LWC V2.00 B2112,2013-02-27 07:49:00,
2013-02-27 02:54:00,43.8,43.8,29.53,West,268,0.0,0.0,100,0.00,,,0.00,LWC V2.00 B2112,2013-02-27 07:54:00,
2013-02-27 02:59:00,43.8,43.8,29.54,WSW,250,0.0,0.0,100,0.00,,,0.00,LWC V2.00 B2112,2013-02-27 07:59:00,
2013-02-27 03:04:00,43.9,43.9,29.54,WNW,283,0.0,0.0,100,0.00,,,0.00,LWC V2.00 B2112,2013-02-27 08:04:00,
2013-02-27 03:09:00,43.9,43.9,29.54,SW,232,0.0,0.0,100,0.00,,,0.00,LWC V2.00 B2112,2013-02-27 08:09:00,
2013-02-27 03:14:00,43.9,43.9,29.54,NW,325,0.0,0.0,100,0.00,,,0.00,LWC V2.00 B2112,2013-02-27 08:14:00,
2013-02-27 03:19:00,43.9,43.9,29.54,South,172,0.0,0.0,100,0.00,,,0.00,LWC V2.00 B2112,2013-02-27 08:19:00,
2013-02-27 03:24:00,43.8,43.8,29.54,West,267,2.0,4.0,100,0.00,,,0.00,LWC V2.00 B2112,2013-02-27 08:24:00,
2013-02-27 03:29:00,43.5,43.5,29.53,West,276,0.0,0.0,100,0.00,,,0.00,LWC V2.00 B2112,2013-02-27 08:29:00,
2013-02-27 03:34:00,43.3,43.3,29.53,WSW,238,0.0,0.0,100,0.00,,,0.00,LWC V2.00 B2112,2013-02-27 08:34:00,
2013-02-27 03:39:00,43.3,43.3,29.53,WSW,238,0.0,0.0,100,0.00,,,0.00,LWC V2.00 B2112,2013-02-27 08:39:00,
2013-02-27 03:44:00,43.3,43.3,29.51,SSE,153,0.0,0.0,100,0.00,,,0.00,LWC V2.00 B2112,2013-02-27 08:44:00,
2013-02-27 03:49:00,43.3,43.3,29.51,WSW,255,0.0,0.0,100,0.00,,,0.00,LWC V2.00 B2112,2013-02-27 08:49:00,
2013-02-27 03:54:00,43.2,43.2,29.51,WSW,248,0.0,0.0,100,0.00,,,0.00,LWC V2.00 B2112,2013-02-27 08:54:00,
2013-02-27 03:59:00,43.2,43.2,29.51,SSE,155,0.0,0.0,100,0.00,,,0.00,LWC V2.00 B2112,2013-02-27 08:59:00,
2013-02-27 04:04:00,43.2,43.2,29.51,WSW,240,0.0,0.0,100,0.00,,,0.00,LWC V2.00 B2112,2013-02-27 09:04:00,
2013-02-27 04:09:00,43.2,43.2,29.51,WSW,249,0.0,0.0,100,0.00,,,0.00,LWC V2.00 B2112,2013-02-27 09:09:00,
2013-02-27 04:14:00,43.2,43.2,29.52,SW,228,0.0,4.0,100,0.00,,,0.00,LWC V2.00 B2112,2013-02-27 09:14:00,
2013-02-27 04:19:00,43.2,43.2,29.52,WSW,242,4.0,4.0,100,0.00,,,0.00,LWC V2.00 B2112,2013-02-27 09:19:00,
2013-02-27 04:24:00,43.2,42.9,29.52,ENE,65,0.0,3.0,99,0.00,,,0.00,LWC V2.00 B2112,2013-02-27 09:24:00,
2013-02-27 04:29:00,43.1,42.8,29.53,WSW,252,6.0,6.0,99,0.00,,,0.00,LWC V2.00 B2112,2013-02-27 09:29:00,
2013-02-27 04:34:00,43.1,42.8,29.53,WNW,288,5.0,9.0,99,0.00,,,0.00,LWC V2.00 B2112,2013-02-27 09:34:00,
2013-02-27 04:39:00,42.9,42.6,29.53,West,276,1.0,6.0,99,0.00,,,0.00,LWC V2.00 B2112,2013-02-27 09:39:00,
2013-02-27 04:44:00,42.8,42.5,29.54,South,185,0.0,6.0,99,0.00,,,0.00,LWC V2.00 B2112,2013-02-27 09:44:00,
2013-02-27 04:49:00,42.8,42.5,29.54,West,271,0.0,5.0,99,0.00,,,0.00,LWC V2.00 B2112,2013-02-27 09:49:00,
2013-02-27 04:54:00,42.8,42.5,29.54,SW,235,0.0,0.0,99,0.00,,,0.00,LWC V2.00 B2112,2013-02-27 09:54:00,
2013-02-27 04:59:00,42.8,42.3,29.54,WSW,258,1.0,3.0,98,0.00,,,0.00,LWC V2.00 B2112,2013-02-27 09:59:00,
2013-02-27 05:04:00,42.6,42.1,29.54,South,182,0.0,0.0,98,0.00,,,0.00,LWC V2.00 B2112,2013-02-27 10:04:00,
2013-02-27 05:09:00,42.6,42.1,29.54,SSE,161,0.0,0.0,98,0.00,,,0.00,LWC V2.00 B2112,2013-02-27 10:09:00,
2013-02-27 05:14:00,42.6,42.1,29.55,NW,309,0.0,0.0,98,0.00,,,0.00,LWC V2.00 B2112,2013-02-27 10:14:00,
2013-02-27 05:19:00,42.6,42.1,29.55,West,280,0.0,0.0,98,0.00,,,0.00,LWC V2.00 B2112,2013-02-27 10:19:00,
2013-02-27 05:24:00,42.5,42.0,29.55,West,266,0.0,2.0,98,0.00,,,0.00,LWC V2.00 B2112,2013-02-27 10:24:00,
2013-02-27 05:29:00,42.2,41.4,29.56,WSW,251,1.0,1.0,97,0.00,,,0.00,LWC V2.00 B2112,2013-02-27 10:29:00,
2013-02-27 05:34:00,42.1,41.3,29.56,West,276,0.0,0.0,97,0.00,,,0.00,LWC V2.00 B2112,2013-02-27 10:34:00,
2013-02-27 05:39:00,41.9,40.8,29.56,WNW,283,0.0,10.0,96,0.00,,,0.00,LWC V2.00 B2112,2013-02-27 10:39:00,
2013-02-27 05:44:00,41.9,40.8,29.56,SW,224,0.0,4.0,96,0.00,,,0.00,LWC V2.00 B2112,2013-02-27 10:44:00,
2013-02-27 05:49:00,41.9,40.8,29.56,West,259,0.0,0.0,96,0.00,,,0.00,LWC V2.00 B2112,2013-02-27 10:49:00,
2013-02-27 05:54:00,41.9,40.8,29.56,WSW,239,4.0,4.0,96,0.00,,,0.00,LWC V2.00 B2112,2013-02-27 10:54:00,
2013-02-27 05:59:00,41.9,40.8,29.57,WSW,238,0.0,0.0,96,0.00,,,0.00,LWC V2.00 B2112,2013-02-27 10:59:00,
2013-02-27 06:04:00,41.9,40.8,29.57,WSW,245,0.0,5.0,96,0.00,,,0.00,LWC V2.00 B2112,2013-02-27 11:04:00,
2013-02-27 06:09:00,41.8,40.5,29.57,North,359,0.0,0.0,95,0.00,,,0.00,LWC V2.00 B2112,2013-02-27 11:09:00,
2013-02-27 06:14:00,41.8,40.7,29.57,WSW,245,0.0,1.0,96,0.00,,,0.00,LWC V2.00 B2112,2013-02-27 11:14:00,
2013-02-27 06:19:00,41.8,40.7,29.57,SSE,165,0.0,0.0,96,0.00,,,0.00,LWC V2.00 B2112,2013-02-27 11:19:00,
2013-02-27 06:24:00,41.8,40.5,29.57,WNW,296,0.0,5.0,95,0.00,,,0.00,LWC V2.00 B2112,2013-02-27 11:24:00,
2013-02-27 06:29:00,41.8,40.5,29.57,WSW,239,0.0,0.0,95,0.00,,,0.00,LWC V2.00 B2112,2013-02-27 11:29:00,
2013-02-27 06:34:00,41.8,40.5,29.57,West,278,0.0,0.0,95,0.00,,,0.00,LWC V2.00 B2112,2013-02-27 11:34:00,
2013-02-27 06:39:00,41.8,40.5,29.57,WSW,243,0.0,0.0,95,0.00,,,0.00,LWC V2.00 B2112,2013-02-27 11:39:00,
2013-02-27 06:44:00,41.8,40.5,29.58,WSW,254,0.0,3.0,95,0.00,,,0.00,LWC V2.00 B2112,2013-02-27 11:44:00,
2013-02-27 06:49:00,41.6,40.3,29.58,West,281,0.0,2.0,95,0.00,,,0.00,LWC V2.00 B2112,2013-02-27 11:49:00,
2013-02-27 06:54:00,41.6,40.3,29.58,West,281,0.0,0.0,95,0.00,,,0.00,LWC V2.00 B2112,2013-02-27 11:54:00,
2013-02-27 06:59:00,41.6,40.3,29.59,WNW,290,0.0,0.0,95,0.00,,,0.00,LWC V2.00 B2112,2013-02-27 11:59:00,
2013-02-27 07:04:00,41.6,40.0,29.59,West,265,0.0,0.0,94,0.00,,,0.00,LWC V2.00 B2112,2013-02-27 12:04:00,
2013-02-27 07:09:00,41.6,40.0,29.59,WSW,257,0.0,5.0,94,0.00,,,0.00,LWC V2.00 B2112,2013-02-27 12:09:00,
2013-02-27 07:14:00,41.6,40.0,29.60,North,1,0.0,0.0,94,0.00,,,0.00,LWC V2.00 B2112,2013-02-27 12:14:00,
2013-02-27 07:19:00,41.6,40.0,29.60,West,276,0.0,0.0,94,0.00,,,0.00,LWC V2.00 B2112,2013-02-27 12:19:00,
2013-02-27 07:24:00,41.6,40.0,29.60,WSW,258,0.0,0.0,94,0.00,,,0.00,LWC V2.00 B2112,2013-02-27 12:24:00,
2013-02-27 07:29:00,41.6,40.0,29.62,NNE,15,0.0,0.0,94,0.00,,,0.00,LWC V2.00 B2112,2013-02-27 12:29:00,
2013-02-27 07:34:00,41.8,40.2,29.62,NNE,15,0.0,0.0,94,0.00,,,0.00,LWC V2.00 B2112,2013-02-27 12:34:00,
2013-02-27 07:39:00,41.8,40.2,29.62,WSW,249,0.0,0.0,94,0.00,,,0.00,LWC V2.00 B2112,2013-02-27 12:39:00,
2013-02-27 07:44:00,41.8,40.2,29.63,West,266,0.0,0.0,94,0.00,,,0.00,LWC V2.00 B2112,2013-02-27 12:44:00,
2013-02-27 07:49:00,41.9,40.3,29.63,NW,311,0.0,0.0,94,0.00,,,0.00,LWC V2.00 B2112,2013-02-27 12:49:00,
2013-02-27 07:54:00,41.9,40.0,29.63,South,172,0.0,0.0,93,0.00,,,0.00,LWC V2.00 B2112,2013-02-27 12:54:00,
2013-02-27 07:59:00,42.1,40.2,29.63,West,274,0.0,0.0,93,0.00,,,0.00,LWC V2.00 B2112,2013-02-27 12:59:00,
2013-02-27 08:04:00,41.9,40.0,29.63,West,269,0.0,0.0,93,0.00,,,0.00,LWC V2.00 B2112,2013-02-27 13:04:00,
2013-02-27 08:09:00,42.1,40.2,29.63,SW,226,0.0,0.0,93,0.00,,,0.00,LWC V2.00 B2112,2013-02-27 13:09:00,
2013-02-27 08:14:00,42.2,40.3,29.64,South,190,0.0,0.0,93,0.00,,,0.00,LWC V2.00 B2112,2013-02-27 13:14:00,
2013-02-27 08:19:00,42.3,40.4,29.64,WNW,283,0.0,0.0,93,0.00,,,0.00,LWC V2.00 B2112,2013-02-27 13:19:00,
2013-02-27 08:24:00,42.8,40.9,29.64,SSW,207,0.0,0.0,93,0.00,,,0.00,LWC V2.00 B2112,2013-02-27 13:24:00,
2013-02-27 08:29:00,42.8,40.6,29.65,SW,235,0.0,7.0,92,0.00,,,0.00,LWC V2.00 B2112,2013-02-27 13:29:00,
2013-02-27 08:34:00,42.8,40.4,29.65,SW,220,0.0,3.0,91,0.00,,,0.00,LWC V2.00 B2112,2013-02-27 13:34:00,
2013-02-27 08:39:00,43.1,40.7,29.65,WSW,248,0.0,5.0,91,0.00,,,0.00,LWC V2.00 B2112,2013-02-27 13:39:00,
2013-02-27 08:44:00,43.3,40.9,29.66,North,356,0.0,0.0,91,0.00,,,0.00,LWC V2.00 B2112,2013-02-27 13:44:00,
2013-02-27 08:49:00,43.6,40.9,29.66,WSW,258,0.0,4.0,90,0.00,,,0.00,LWC V2.00 B2112,2013-02-27 13:49:00,
2013-02-27 08:54:00,43.8,40.8,29.66,SSW,209,1.0,6.0,89,0.00,,,0.00,LWC V2.00 B2112,2013-02-27 13:54:00,
2013-02-27 08:59:00,43.8,40.2,29.67,SW,216,0.0,9.0,87,0.00,,,0.00,LWC V2.00 B2112,2013-02-27 13:59:00,
2013-02-27 09:04:00,44.1,40.8,29.67,West,269,2.0,5.0,88,0.00,,,0.00,LWC V2.00 B2112,2013-02-27 14:04:00,
2013-02-27 09:09:00,44.5,40.9,29.67,WNW,294,0.0,4.0,87,0.00,,,0.00,LWC V2.00 B2112,2013-02-27 14:09:00,
2013-02-27 09:14:00,45.4,41.5,29.67,West,261,0.0,6.0,86,0.00,,,0.00,LWC V2.00 B2112,2013-02-27 14:14:00,
2013-02-27 09:19:00,45.7,41.5,29.67,SSW,197,0.0,7.0,85,0.00,,,0.00,LWC V2.00 B2112,2013-02-27 14:19:00,
2013-02-27 09:24:00,46.2,41.3,29.67,SW,229,0.0,5.0,83,0.00,,,0.00,LWC V2.00 B2112,2013-02-27 14:24:00,
2013-02-27 09:29:00,46.2,40.1,29.67,North,349,0.0,6.0,79,0.00,,,0.00,LWC V2.00 B2112,2013-02-27 14:29:00,
2013-02-27 09:34:00,46.4,39.9,29.67,West,278,5.0,5.0,78,0.00,,,0.00,LWC V2.00 B2112,2013-02-27 14:34:00,
2013-02-27 09:39:00,46.8,40.6,29.67,WSW,237,0.0,0.0,79,0.00,,,0.00,LWC V2.00 B2112,2013-02-27 14:39:00,
2013-02-27 09:44:00,47.6,41.1,29.66,North,11,0.0,0.0,78,0.00,,,0.00,LWC V2.00 B2112,2013-02-27 14:44:00,
2013-02-27 09:49:00,48.0,40.5,29.66,North,6,0.0,3.0,75,0.00,,,0.00,LWC V2.00 B2112,2013-02-27 14:49:00,
2013-02-27 09:54:00,48.5,40.9,29.66,NNW,330,0.0,0.0,75,0.00,,,0.00,LWC V2.00 B2112,2013-02-27 14:54:00,
2013-02-27 09:59:00,48.9,41.3,29.66,WNW,300,0.0,0.0,75,0.00,,,0.00,LWC V2.00 B2112,2013-02-27 14:59:00,
2013-02-27 10:04:00,49.4,41.1,29.66,West,274,0.0,5.0,73,0.00,,,0.00,LWC V2.00 B2112,2013-02-27 15:04:00,
2013-02-27 10:09:00,49.4,40.4,29.66,West,266,0.0,1.0,71,0.00,,,0.00,LWC V2.00 B2112,2013-02-27 15:09:00,
2013-02-27 10:14:00,49.5,39.8,29.66,North,349,0.0,6.0,69,0.00,,,0.00,LWC V2.00 B2112,2013-02-27 15:14:00,
2013-02-27 10:19:00,49.9,40.5,29.66,West,270,5.0,5.0,70,0.00,,,0.00,LWC V2.00 B2112,2013-02-27 15:19:00,
2013-02-27 10:24:00,50.1,39.2,29.66,WSW,250,3.0,5.0,66,0.00,,,0.00,LWC V2.00 B2112,2013-02-27 15:24:00,
2013-02-27 10:34:00,50.5,38.8,29.66,West,273,0.0,0.0,64,0.00,,,0.00,LWC V2.00 B2112,2013-02-27 15:34:00,
2013-02-27 10:39:00,50.8,39.9,29.66,WSW,255,5.0,6.0,66,0.00,,,0.00,LWC V2.00 B2112,2013-02-27 15:39:00,
2013-02-27 10:44:00,51.3,39.1,29.67,WSW,244,0.0,10.0,63,0.00,,,0.00,LWC V2.00 B2112,2013-02-27 15:44:00,
2013-02-27 10:49:00,51.4,38.8,29.67,SW,234,0.0,9.0,62,0.00,,,0.00,LWC V2.00 B2112,2013-02-27 15:49:00,
2013-02-27 10:54:00,51.3,37.9,29.67,WNW,297,0.0,3.0,60,0.00,,,0.00,LWC V2.00 B2112,2013-02-27 15:54:00,
2013-02-27 10:59:00,51.6,38.6,29.68,WNW,298,1.0,10.0,61,0.00,,,0.00,LWC V2.00 B2112,2013-02-27 15:59:00,
2013-02-27 11:04:00,51.7,38.3,29.68,West,261,3.0,6.0,60,0.00,,,0.00,LWC V2.00 B2112,2013-02-27 16:04:00,
2013-02-27 11:09:00,52.3,38.8,29.68,WSW,254,0.0,4.0,60,0.00,,,0.00,LWC V2.00 B2112,2013-02-27 16:09:00,
2013-02-27 11:14:00,52.3,38.0,29.68,WSW,254,3.0,13.0,58,0.00,,,0.00,LWC V2.00 B2112,2013-02-27 16:14:00,
2013-02-27 11:19:00,52.5,37.7,29.68,West,262,3.0,6.0,57,0.00,,,0.00,LWC V2.00 B2112,2013-02-27 16:19:00,
2013-02-27 11:24:00,52.6,37.8,29.68,NW,307,0.0,5.0,57,0.00,,,0.00,LWC V2.00 B2112,2013-02-27 16:24:00,
2013-02-27 11:29:00,52.9,37.6,29.68,NNW,346,0.0,0.0,56,0.00,,,0.00,LWC V2.00 B2112,2013-02-27 16:29:00,
2013-02-27 11:34:00,53.1,37.8,29.68,WNW,300,0.0,6.0,56,0.00,,,0.00,LWC V2.00 B2112,2013-02-27 16:34:00,
2013-02-27 11:39:00,53.1,36.4,29.68,North,353,0.0,2.0,53,0.00,,,0.00,LWC V2.00 B2112,2013-02-27 16:39:00,
2013-02-27 11:44:00,52.9,36.7,29.68,West,281,0.0,0.0,54,0.00,,,0.00,LWC V2.00 B2112,2013-02-27 16:44:00,
2013-02-27 11:49:00,53.2,38.4,29.68,SW,236,0.0,4.0,57,0.00,,,0.00,LWC V2.00 B2112,2013-02-27 16:49:00,
2013-02-27 11:54:00,53.6,36.4,29.68,NNW,347,0.0,4.0,52,0.00,,,0.00,LWC V2.00 B2112,2013-02-27 16:54:00,
2013-02-27 11:59:00,54.2,38.4,29.67,SW,236,0.0,0.0,55,0.00,,,0.00,LWC V2.00 B2112,2013-02-27 16:59:00,
2013-02-27 12:04:00,54.4,37.1,29.67,WSW,256,0.0,3.0,52,0.00,,,0.00,LWC V2.00 B2112,2013-02-27 17:04:00,
2013-02-27 12:09:00,54.5,39.1,29.67,SW,214,5.0,5.0,56,0.00,,,0.00,LWC V2.00 B2112,2013-02-27 17:09:00,
2013-02-27 12:14:00,54.5,35.7,29.66,WNW,294,0.0,2.0,49,0.00,,,0.00,LWC V2.00 B2112,2013-02-27 17:14:00,
2013-02-27 12:19:00,54.8,36.0,29.66,SW,214,0.0,7.0,49,0.00,,,0.00,LWC V2.00 B2112,2013-02-27 17:19:00,
2013-02-27 12:24:00,55.1,37.3,29.66,SSE,161,0.0,3.0,51,0.00,,,0.00,LWC V2.00 B2112,2013-02-27 17:24:00,
2013-02-27 12:29:00,55.4,35.5,29.65,SW,222,0.0,0.0,47,0.00,,,0.00,LWC V2.00 B2112,2013-02-27 17:29:00,
2013-02-27 12:34:00,55.6,36.2,29.65,West,273,2.0,6.0,48,0.00,,,0.00,LWC V2.00 B2112,2013-02-27 17:34:00,
2013-02-27 12:39:00,55.7,35.8,29.65,NNE,22,0.0,9.0,47,0.00,,,0.00,LWC V2.00 B2112,2013-02-27 17:39:00,
2013-02-27 12:44:00,56.0,35.5,29.65,NW,311,0.0,0.0,46,0.00,,,0.00,LWC V2.00 B2112,2013-02-27 17:44:00,
2013-02-27 12:49:00,56.2,36.8,29.65,WSW,250,0.0,6.0,48,0.00,,,0.00,LWC V2.00 B2112,2013-02-27 17:49:00,
2013-02-27 12:54:00,56.2,34.6,29.65,West,268,0.0,0.0,44,0.00,,,0.00,LWC V2.00 B2112,2013-02-27 17:54:00,
2013-02-27 12:59:00,56.5,36.5,29.65,WSW,250,6.0,6.0,47,0.00,,,0.00,LWC V2.00 B2112,2013-02-27 17:59:00,
2013-02-27 13:04:00,56.3,34.7,29.65,SW,233,2.0,2.0,44,0.00,,,0.00,LWC V2.00 B2112,2013-02-27 18:04:00,
2013-02-27 13:09:00,56.6,36.1,29.65,WSW,254,0.0,0.0,46,0.00,,,0.00,LWC V2.00 B2112,2013-02-27 18:09:00,
2013-02-27 13:14:00,57.2,36.1,29.64,SSW,196,0.0,0.0,45,0.00,,,0.00,LWC V2.00 B2112,2013-02-27 18:14:00,
2013-02-27 13:19:00,57.6,36.4,29.64,South,186,0.0,7.0,45,0.00,,,0.00,LWC V2.00 B2112,2013-02-27 18:19:00,
2013-02-27 13:24:00,57.3,36.1,29.64,SW,219,3.0,4.0,45,0.00,,,0.00,LWC V2.00 B2112,2013-02-27 18:24:00,
2013-02-27 13:29:00,57.5,35.8,29.63,SW,236,0.0,0.0,44,0.00,,,0.00,LWC V2.00 B2112,2013-02-27 18:29:00,
2013-02-27 13:34:00,57.5,35.8,29.63,West,266,0.0,0.0,44,0.00,,,0.00,LWC V2.00 B2112,2013-02-27 18:34:00,
2013-02-27 13:39:00,57.5,35.2,29.63,SW,236,5.0,5.0,43,0.00,,,0.00,LWC V2.00 B2112,2013-02-27 18:39:00,
2013-02-27 13:44:00,57.2,35.5,29.62,WSW,258,0.0,6.0,44,0.00,,,0.00,LWC V2.00 B2112,2013-02-27 18:44:00,
2013-02-27 13:49:00,57.3,35.6,29.62,SSE,159,0.0,0.0,44,0.00,,,0.00,LWC V2.00 B2112,2013-02-27 18:49:00,
2013-02-27 13:54:00,57.8,36.0,29.62,SW,222,0.0,0.0,44,0.00,,,0.00,LWC V2.00 B2112,2013-02-27 18:54:00,
2013-02-27 13:59:00,58.3,36.5,29.62,South,181,0.0,0.0,44,0.00,,,0.00,LWC V2.00 B2112,2013-02-27 18:59:00,
2013-02-27 14:04:00,58.4,35.4,29.62,NW,318,0.0,0.0,42,0.00,,,0.00,LWC V2.00 B2112,2013-02-27 19:04:00,
2013-02-27 14:09:00,58.3,34.1,29.62,South,183,0.0,0.0,40,0.00,,,0.00,LWC V2.00 B2112,2013-02-27 19:09:00,
2013-02-27 14:14:00,58.3,35.9,29.62,West,270,1.0,9.0,43,0.00,,,0.00,LWC V2.00 B2112,2013-02-27 19:14:00,
2013-02-27 14:19:00,58.3,34.7,29.62,SW,226,0.0,6.0,41,0.00,,,0.00,LWC V2.00 B2112,2013-02-27 19:19:00,
2013-02-27 14:24:00,58.3,35.3,29.62,NNE,18,0.0,0.0,42,0.00,,,0.00,LWC V2.00 B2112,2013-02-27 19:24:00,
2013-02-27 14:29:00,58.7,34.4,29.63,WNW,301,0.0,0.0,40,0.00,,,0.00,LWC V2.00 B2112,2013-02-27 19:29:00,
2013-02-27 14:34:00,59.3,35.6,29.63,North,6,0.0,0.0,41,0.00,,,0.00,LWC V2.00 B2112,2013-02-27 19:34:00,
2013-02-27 14:39:00,59.5,33.9,29.63,West,264,0.0,7.0,38,0.00,,,0.00,LWC V2.00 B2112,2013-02-27 19:39:00,
2013-02-27 14:44:00,59.2,34.3,29.62,NW,305,0.0,0.0,39,0.00,,,0.00,LWC V2.00 B2112,2013-02-27 19:44:00,
2013-02-27 14:49:00,59.5,35.2,29.62,ESE,110,0.0,0.0,40,0.00,,,0.00,LWC V2.00 B2112,2013-02-27 19:49:00,
2013-02-27 14:54:00,59.3,37.4,29.62,SSW,205,0.0,2.0,44,0.00,,,0.00,LWC V2.00 B2112,2013-02-27 19:54:00,
2013-02-27 14:59:00,59.3,34.3,29.62,WSW,252,0.0,3.0,39,0.00,,,0.00,LWC V2.00 B2112,2013-02-27 19:59:00,
2013-02-27 15:04:00,59.0,35.9,29.62,SW,234,0.0,3.0,42,0.00,,,0.00,LWC V2.00 B2112,2013-02-27 20:04:00,
2013-02-27 15:09:00,59.3,35.6,29.62,SSW,212,0.0,0.0,41,0.00,,,0.00,LWC V2.00 B2112,2013-02-27 20:09:00,
2013-02-27 15:14:00,59.5,34.5,29.62,SSW,203,0.0,0.0,39,0.00,,,0.00,LWC V2.00 B2112,2013-02-27 20:14:00,
2013-02-27 15:19:00,59.5,36.4,29.62,SSE,154,0.0,0.0,42,0.00,,,0.00,LWC V2.00 B2112,2013-02-27 20:19:00,
2013-02-27 15:24:00,59.5,37.0,29.62,ESE,103,0.0,2.0,43,0.00,,,0.00,LWC V2.00 B2112,2013-02-27 20:24:00,
2013-02-27 15:29:00,59.6,35.2,29.62,NNW,330,0.0,2.0,40,0.00,,,0.00,LWC V2.00 B2112,2013-02-27 20:29:00,
2013-02-27 15:34:00,59.6,34.6,29.62,SW,227,0.0,12.0,39,0.00,,,0.00,LWC V2.00 B2112,2013-02-27 20:34:00,
2013-02-27 15:39:00,59.3,35.6,29.62,North,4,0.0,2.0,41,0.00,,,0.00,LWC V2.00 B2112,2013-02-27 20:39:00,
2013-02-27 15:44:00,59.3,35.6,29.62,West,262,0.0,9.0,41,0.00,,,0.00,LWC V2.00 B2112,2013-02-27 20:44:00,
2013-02-27 15:49:00,59.2,35.5,29.62,WNW,295,0.0,0.0,41,0.00,,,0.00,LWC V2.00 B2112,2013-02-27 20:49:00,
2013-02-27 15:54:00,59.3,35.0,29.62,WSW,245,0.0,0.0,40,0.00,,,0.00,LWC V2.00 B2112,2013-02-27 20:54:00,
2013-02-27 15:59:00,59.3,35.0,29.62,WSW,252,0.0,0.0,40,0.00,,,0.00,LWC V2.00 B2112,2013-02-27 20:59:00,
2013-02-27 16:04:00,59.3,35.6,29.62,WNW,285,0.0,0.0,41,0.00,,,0.00,LWC V2.00 B2112,2013-02-27 21:04:00,
2013-02-27 16:09:00,59.3,36.2,29.62,West,260,0.0,4.0,42,0.00,,,0.00,LWC V2.00 B2112,2013-02-27 21:09:00,
2013-02-27 16:14:00,59.2,34.9,29.62,SW,229,2.0,3.0,40,0.00,,,0.00,LWC V2.00 B2112,2013-02-27 21:14:00,
2013-02-27 16:19:00,59.0,35.9,29.62,NNW,336,0.0,0.0,42,0.00,,,0.00,LWC V2.00 B2112,2013-02-27 21:19:00,
2013-02-27 16:24:00,59.2,34.9,29.62,WSW,250,0.0,8.0,40,0.00,,,0.00,LWC V2.00 B2112,2013-02-27 21:24:00,
2013-02-27 16:29:00,58.9,35.2,29.61,SW,230,0.0,1.0,41,0.00,,,0.00,LWC V2.00 B2112,2013-02-27 21:29:00,
2013-02-27 16:34:00,58.6,35.0,29.61,SSW,207,0.0,5.0,41,0.00,,,0.00,LWC V2.00 B2112,2013-02-27 21:34:00,
2013-02-27 16:39:00,58.6,35.0,29.61,SW,231,0.0,0.0,41,0.00,,,0.00,LWC V2.00 B2112,2013-02-27 21:39:00,
2013-02-27 16:44:00,58.6,36.2,29.61,SSW,210,2.0,2.0,43,0.00,,,0.00,LWC V2.00 B2112,2013-02-27 21:44:00,
2013-02-27 16:49:00,58.6,36.2,29.61,WSW,247,0.0,3.0,43,0.00,,,0.00,LWC V2.00 B2112,2013-02-27 21:49:00,
2013-02-27 16:54:00,58.4,35.4,29.61,SE,139,0.0,0.0,42,0.00,,,0.00,LWC V2.00 B2112,2013-02-27 21:54:00,
2013-02-27 16:59:00,58.3,36.5,29.61,WNW,299,0.0,0.0,44,0.00,,,0.00,LWC V2.00 B2112,2013-02-27 21:59:00,
2013-02-27 17:04:00,58.0,35.6,29.61,WSW,254,0.0,4.0,43,0.00,,,0.00,LWC V2.00 B2112,2013-02-27 22:04:00,
2013-02-27 17:09:00,57.8,36.6,29.61,SSW,212,0.0,2.0,45,0.00,,,0.00,LWC V2.00 B2112,2013-02-27 22:09:00,
2013-02-27 17:14:00,57.5,35.8,29.62,WSW,243,0.0,1.0,44,0.00,,,0.00,LWC V2.00 B2112,2013-02-27 22:14:00,
2013-02-27 17:19:00,57.3,36.1,29.62,SW,228,0.0,0.0,45,0.00,,,0.00,LWC V2.00 B2112,2013-02-27 22:19:00,
2013-02-27 17:24:00,56.7,36.7,29.62,WNW,293,0.0,0.0,47,0.00,,,0.00,LWC V2.00 B2112,2013-02-27 22:24:00,
2013-02-27 17:29:00,56.3,36.9,29.62,SW,233,0.0,0.0,48,0.00,,,0.00,LWC V2.00 B2112,2013-02-27 22:29:00,
2013-02-27 17:34:00,56.0,37.1,29.62,West,274,0.0,0.0,49,0.00,,,0.00,LWC V2.00 B2112,2013-02-27 22:34:00,
2013-02-27 17:39:00,55.7,37.3,29.62,SSW,198,0.0,0.0,50,0.00,,,0.00,LWC V2.00 B2112,2013-02-27 22:39:00,
2013-02-27 17:44:00,55.3,37.0,29.62,West,261,0.0,0.0,50,0.00,,,0.00,LWC V2.00 B2112,2013-02-27 22:44:00,
2013-02-27 17:49:00,55.1,37.3,29.62,SSW,198,0.0,0.0,51,0.00,,,0.00,LWC V2.00 B2112,2013-02-27 22:49:00,
2013-02-27 17:54:00,54.8,37.5,29.62,SSW,198,0.0,0.0,52,0.00,,,0.00,LWC V2.00 B2112,2013-02-27 22:54:00,
2013-02-27 17:59:00,54.7,36.9,29.62,SSW,198,0.0,0.0,51,0.00,,,0.00,LWC V2.00 B2112,2013-02-27 22:59:00,
2013-02-27 18:04:00,54.4,37.1,29.62,SSE,162,0.0,0.0,52,0.00,,,0.00,LWC V2.00 B2112,2013-02-27 23:04:00,
2013-02-27 18:09:00,54.2,37.4,29.62,SSW,193,0.0,0.0,53,0.00,,,0.00,LWC V2.00 B2112,2013-02-27 23:09:00,
2013-02-27 18:14:00,54.1,37.4,29.63,SSE,167,0.0,0.0,53,0.00,,,0.00,LWC V2.00 B2112,2013-02-27 23:14:00,
2013-02-27 18:19:00,53.5,37.7,29.63,West,261,0.0,0.0,55,0.00,,,0.00,LWC V2.00 B2112,2013-02-27 23:19:00,
2013-02-27 18:24:00,53.2,37.5,29.63,SSW,199,0.0,0.0,55,0.00,,,0.00,LWC V2.00 B2112,2013-02-27 23:24:00,
2013-02-27 18:29:00,52.9,37.6,29.64,SSW,199,0.0,0.0,56,0.00,,,0.00,LWC V2.00 B2112,2013-02-27 23:29:00,
2013-02-27 18:34:00,52.5,37.7,29.64,WSW,240,0.0,0.0,57,0.00,,,0.00,LWC V2.00 B2112,2013-02-27 23:34:00,
2013-02-27 18:39:00,52.2,37.9,29.64,WSW,240,0.0,0.0,58,0.00,,,0.00,LWC V2.00 B2112,2013-02-27 23:39:00,
2013-02-27 18:44:00,51.9,38.0,29.64,WSW,250,0.0,0.0,59,0.00,,,0.00,LWC V2.00 B2112,2013-02-27 23:44:00,
2013-02-27 18:49:00,51.6,37.7,29.64,WSW,247,0.0,0.0,59,0.00,,,0.00,LWC V2.00 B2112,2013-02-27 23:49:00,
2013-02-27 18:54:00,51.3,37.9,29.64,South,191,0.0,0.0,60,0.00,,,0.00,LWC V2.00 B2112,2013-02-27 23:54:00,
2013-02-27 18:59:00,51.3,37.9,29.64,SSW,203,0.0,0.0,60,0.00,,,0.00,LWC V2.00 B2112,2013-02-27 23:59:00,
2013-02-27 19:04:00,51.4,38.0,29.64,SW,219,0.0,0.0,60,0.00,,,0.00,LWC V2.00 B2112,2013-02-28 00:04:00,
2013-02-27 19:09:00,51.3,37.9,29.64,SW,219,0.0,0.0,60,0.00,,,0.00,LWC V2.00 B2112,2013-02-28 00:09:00,
2013-02-27 19:14:00,51.0,38.0,29.64,SW,219,0.0,0.0,61,0.00,,,0.00,LWC V2.00 B2112,2013-02-28 00:14:00,
2013-02-27 19:19:00,50.7,37.7,29.64,SW,219,0.0,0.0,61,0.00,,,0.00,LWC V2.00 B2112,2013-02-28 00:19:00,
2013-02-27 19:24:00,50.4,37.9,29.64,SW,221,0.0,0.0,62,0.00,,,0.00,LWC V2.00 B2112,2013-02-28 00:24:00,
2013-02-27 19:29:00,50.1,37.6,29.64,WSW,243,0.0,0.0,62,0.00,,,0.00,LWC V2.00 B2112,2013-02-28 00:29:00,
2013-02-27 19:34:00,49.9,37.8,29.64,WSW,245,0.0,0.0,63,0.00,,,0.00,LWC V2.00 B2112,2013-02-28 00:34:00,
2013-02-27 19:39:00,49.8,37.7,29.64,WSW,245,0.0,0.0,63,0.00,,,0.00,LWC V2.00 B2112,2013-02-28 00:39:00,
2013-02-27 19:44:00,49.6,37.9,29.64,SE,143,0.0,0.0,64,0.00,,,0.00,LWC V2.00 B2112,2013-02-28 00:44:00,
2013-02-27 19:49:00,49.4,37.7,29.64,SE,143,0.0,0.0,64,0.00,,,0.00,LWC V2.00 B2112,2013-02-28 00:49:00,
2013-02-27 19:54:00,49.2,37.9,29.64,WNW,282,0.0,0.0,65,0.00,,,0.00,LWC V2.00 B2112,2013-02-28 00:54:00,
2013-02-27 19:59:00,49.1,37.8,29.64,West,281,0.0,0.0,65,0.00,,,0.00,LWC V2.00 B2112,2013-02-28 00:59:00,
2013-02-27 20:04:00,49.1,37.8,29.64,WNW,282,0.0,0.0,65,0.00,,,0.00,LWC V2.00 B2112,2013-02-28 01:04:00,
2013-02-27 20:09:00,48.8,38.0,29.64,WNW,282,0.0,0.0,66,0.00,,,0.00,LWC V2.00 B2112,2013-02-28 01:09:00,
2013-02-27 20:14:00,48.5,37.7,29.64,West,281,0.0,0.0,66,0.00,,,0.00,LWC V2.00 B2112,2013-02-28 01:14:00,
2013-02-27 20:19:00,48.0,37.6,29.64,WNW,282,0.0,0.0,67,0.00,,,0.00,LWC V2.00 B2112,2013-02-28 01:19:00,
2013-02-27 20:24:00,47.7,37.7,29.64,West,281,0.0,0.0,68,0.00,,,0.00,LWC V2.00 B2112,2013-02-28 01:24:00,
2013-02-27 20:29:00,47.3,37.7,29.64,WNW,282,0.0,0.0,69,0.00,,,0.00,LWC V2.00 B2112,2013-02-28 01:29:00,
2013-02-27 20:34:00,47.3,37.7,29.64,SSW,206,0.0,0.0,69,0.00,,,0.00,LWC V2.00 B2112,2013-02-28 01:34:00,
2013-02-27 20:39:00,47.6,37.9,29.64,SSW,206,0.0,0.0,69,0.00,,,0.00,LWC V2.00 B2112,2013-02-28 01:39:00,
2013-02-27 20:44:00,47.7,37.7,29.64,West,270,0.0,0.0,68,0.00,,,0.00,LWC V2.00 B2112,2013-02-28 01:44:00,
2013-02-27 20:49:00,47.7,37.7,29.64,West,262,0.0,0.0,68,0.00,,,0.00,LWC V2.00 B2112,2013-02-28 01:49:00,
2013-02-27 20:54:00,47.7,37.7,29.64,SW,233,0.0,0.0,68,0.00,,,0.00,LWC V2.00 B2112,2013-02-28 01:54:00,
2013-02-27 20:59:00,47.7,37.7,29.64,SW,233,0.0,0.0,68,0.00,,,0.00,LWC V2.00 B2112,2013-02-28 01:59:00,
2013-02-27 21:04:00,47.6,37.9,29.64,SW,233,0.0,0.0,69,0.00,,,0.00,LWC V2.00 B2112,2013-02-28 02:04:00,
2013-02-27 21:09:00,47.6,37.6,29.64,SW,233,0.0,0.0,68,0.00,,,0.00,LWC V2.00 B2112,2013-02-28 02:09:00,
2013-02-27 21:14:00,47.4,37.7,29.64,SW,233,0.0,0.0,69,0.00,,,0.00,LWC V2.00 B2112,2013-02-28 02:14:00,
2013-02-27 21:19:00,47.1,37.5,29.64,SW,233,0.0,0.0,69,0.00,,,0.00,LWC V2.00 B2112,2013-02-28 02:19:00,
2013-02-27 21:24:00,47.0,37.7,29.64,SW,233,0.0,0.0,70,0.00,,,0.00,LWC V2.00 B2112,2013-02-28 02:24:00,
2013-02-27 21:29:00,46.8,37.5,29.64,SSW,208,0.0,0.0,70,0.00,,,0.00,LWC V2.00 B2112,2013-02-28 02:29:00,
2013-02-27 21:34:00,46.8,37.5,29.64,SSW,208,0.0,0.0,70,0.00,,,0.00,LWC V2.00 B2112,2013-02-28 02:34:00,
2013-02-27 21:39:00,46.8,37.9,29.64,SSW,208,0.0,0.0,71,0.00,,,0.00,LWC V2.00 B2112,2013-02-28 02:39:00,
2013-02-27 21:44:00,46.7,37.8,29.63,SSW,208,0.0,0.0,71,0.00,,,0.00,LWC V2.00 B2112,2013-02-28 02:44:00,
2013-02-27 21:49:00,46.5,38.0,29.63,West,261,0.0,0.0,72,0.00,,,0.00,LWC V2.00 B2112,2013-02-28 02:49:00,
2013-02-27 21:54:00,46.2,37.7,29.63,West,261,0.0,0.0,72,0.00,,,0.00,LWC V2.00 B2112,2013-02-28 02:54:00,
2013-02-27 21:59:00,46.0,37.8,29.64,West,261,0.0,0.0,73,0.00,,,0.00,LWC V2.00 B2112,2013-02-28 02:59:00,
2013-02-27 22:04:00,45.5,37.4,29.64,West,261,0.0,0.0,73,0.00,,,0.00,LWC V2.00 B2112,2013-02-28 03:04:00,
2013-02-27 22:09:00,45.2,37.4,29.64,West,261,0.0,0.0,74,0.00,,,0.00,LWC V2.00 B2112,2013-02-28 03:09:00,
2013-02-27 22:14:00,44.8,37.4,29.64,West,261,0.0,0.0,75,0.00,,,0.00,LWC V2.00 B2112,2013-02-28 03:14:00,
2013-02-27 22:19:00,44.5,37.1,29.64,West,261,0.0,0.0,75,0.00,,,0.00,LWC V2.00 B2112,2013-02-28 03:19:00,
2013-02-27 22:24:00,44.2,37.1,29.64,West,261,0.0,0.0,76,0.00,,,0.00,LWC V2.00 B2112,2013-02-28 03:24:00,
2013-02-27 22:29:00,43.9,37.2,29.64,West,261,0.0,0.0,77,0.00,,,0.00,LWC V2.00 B2112,2013-02-28 03:29:00,
2013-02-27 22:34:00,43.6,37.2,29.64,West,261,0.0,0.0,78,0.00,,,0.00,LWC V2.00 B2112,2013-02-28 03:34:00,
2013-02-27 22:39:00,43.3,37.2,29.64,West,261,0.0,0.0,79,0.00,,,0.00,LWC V2.00 B2112,2013-02-28 03:39:00,
2013-02-27 22:44:00,43.1,37.0,29.63,West,261,0.0,0.0,79,0.00,,,0.00,LWC V2.00 B2112,2013-02-28 03:44:00,
2013-02-27 22:49:00,42.8,36.7,29.63,West,261,0.0,0.0,79,0.00,,,0.00,LWC V2.00 B2112,2013-02-28 03:49:00,
2013-02-27 22:54:00,42.6,36.9,29.63,West,261,0.0,0.0,80,0.00,,,0.00,LWC V2.00 B2112,2013-02-28 03:54:00,
2013-02-27 22:59:00,42.3,36.9,29.62,West,261,0.0,0.0,81,0.00,,,0.00,LWC V2.00 B2112,2013-02-28 03:59:00,
2013-02-27 23:04:00,42.2,36.8,29.62,West,261,0.0,0.0,81,0.00,,,0.00,LWC V2.00 B2112,2013-02-28 04:04:00,
2013-02-27 23:09:00,42.1,37.0,29.62,West,261,0.0,0.0,82,0.00,,,0.00,LWC V2.00 B2112,2013-02-28 04:09:00,
2013-02-27 23:14:00,42.1,37.0,29.62,West,261,0.0,0.0,82,0.00,,,0.00,LWC V2.00 B2112,2013-02-28 04:14:00,
2013-02-27 23:19:00,41.9,37.1,29.62,West,261,0.0,0.0,83,0.00,,,0.00,LWC V2.00 B2112,2013-02-28 04:19:00,
2013-02-27 23:24:00,41.9,37.1,29.62,West,261,0.0,0.0,83,0.00,,,0.00,LWC V2.00 B2112,2013-02-28 04:24:00,
2013-02-27 23:29:00,41.9,37.1,29.61,West,261,0.0,0.0,83,0.00,,,0.00,LWC V2.00 B2112,2013-02-28 04:29:00,
2013-02-27 23:34:00,41.8,37.0,29.61,West,261,0.0,0.0,83,0.00,,,0.00,LWC V2.00 B2112,2013-02-28 04:34:00,
2013-02-27 23:39:00,41.8,37.0,29.61,West,261,0.0,0.0,83,0.00,,,0.00,LWC V2.00 B2112,2013-02-28 04:39:00,
2013-02-27 23:44:00,41.8,37.3,29.60,West,261,0.0,0.0,84,0.00,,,0.00,LWC V2.00 B2112,2013-02-28 04:44:00,
2013-02-27 23:49:00,41.8,37.3,29.60,West,261,0.0,0.0,84,0.00,,,0.00,LWC V2.00 B2112,2013-02-28 04:49:00,
2013-02-27 23:54:00,41.9,37.4,29.60,West,261,0.0,0.0,84,0.00,,,0.00,LWC V2.00 B2112,2013-02-28 04:54:00,
2013-02-27 23:59:00,42.2,37.7,29.60,SW,221,0.0,0.0,84,0.00,,,0.00,LWC V2.00 B2112,2013-02-28 04:59:00,